createdAt,value
2022-10-09T00:00:20.008Z,6.93
2022-10-09T00:01:19.924Z,6.88
2022-10-09T00:02:19.927Z,6.91
2022-10-09T00:03:19.764Z,6.93
2022-10-09T00:04:19.681Z,6.91
2022-10-09T00:05:19.649Z,6.93
2022-10-09T00:06:19.512Z,6.78
2022-10-09T00:07:19.432Z,6.91
2022-10-09T00:08:19.352Z,6.78
2022-10-09T00:09:19.270Z,6.83
2022-10-09T00:10:19.186Z,6.84
2022-10-09T00:11:19.113Z,6.78
2022-10-09T00:12:19.026Z,6.87
2022-10-09T00:13:18.942Z,6.83
2022-10-09T00:14:18.858Z,6.80
2022-10-09T00:15:18.777Z,6.75
2022-10-09T00:16:18.797Z,6.63
2022-10-09T00:17:18.613Z,6.62
2022-10-09T00:18:18.529Z,6.44
2022-10-09T00:19:18.448Z,6.37
2022-10-09T00:20:18.367Z,6.34
2022-10-09T00:21:18.284Z,6.36
2022-10-09T00:22:18.203Z,6.33
2022-10-09T00:23:18.116Z,6.27
2022-10-09T00:24:18.064Z,6.21
2022-10-09T00:25:17.956Z,6.21
2022-10-09T00:26:17.874Z,6.24
2022-10-09T00:27:17.799Z,6.29
2022-10-09T00:28:17.734Z,6.27
2022-10-09T00:29:17.625Z,6.22
2022-10-09T00:30:17.553Z,6.24
2022-10-09T00:31:17.502Z,6.18
2022-10-09T00:32:17.380Z,6.21
2022-10-09T00:33:17.299Z,6.24
2022-10-09T00:34:17.239Z,6.21
2022-10-09T00:35:17.133Z,6.33
2022-10-09T00:36:17.050Z,6.29
2022-10-09T00:37:16.969Z,6.34
2022-10-09T00:38:16.919Z,6.32
2022-10-09T00:39:16.801Z,6.22
2022-10-09T00:40:16.725Z,6.21
2022-10-09T00:41:16.637Z,6.18
2022-10-09T00:42:16.560Z,6.26
2022-10-09T00:43:16.474Z,6.15
2022-10-09T00:44:16.393Z,6.26
2022-10-09T00:45:16.308Z,6.26
2022-10-09T00:46:16.289Z,6.11
2022-10-09T00:47:16.143Z,6.10
2022-10-09T00:48:16.080Z,6.07
2022-10-09T00:49:15.980Z,6.18
2022-10-09T00:50:15.900Z,6.13
2022-10-09T00:51:15.818Z,6.17
2022-10-09T00:52:15.736Z,6.08
2022-10-09T00:53:15.651Z,6.15
2022-10-09T00:54:15.572Z,6.10
2022-10-09T00:55:15.491Z,6.13
2022-10-09T00:56:15.408Z,5.99
2022-10-09T00:57:15.344Z,5.99
2022-10-09T00:58:15.242Z,6.06
2022-10-09T00:59:15.158Z,6.14
2022-10-09T01:00:15.074Z,6.10
2022-10-09T01:01:15.033Z,6.21
2022-10-09T01:02:14.934Z,6.29
2022-10-09T01:03:14.828Z,6.27
2022-10-09T01:04:14.746Z,6.42
2022-10-09T01:05:14.662Z,6.37
2022-10-09T01:06:14.583Z,6.36
2022-10-09T01:07:14.495Z,6.34
2022-10-09T01:08:14.413Z,6.30
2022-10-09T01:09:14.336Z,6.33
2022-10-09T01:10:14.252Z,6.34
2022-10-09T01:11:14.167Z,6.26
2022-10-09T01:12:14.090Z,6.24
2022-10-09T01:13:14.003Z,6.15
2022-10-09T01:14:13.923Z,6.08
2022-10-09T01:15:13.856Z,6.00
2022-10-09T01:16:13.813Z,5.99
2022-10-09T01:17:13.676Z,6.08
2022-10-09T01:18:13.589Z,6.06
2022-10-09T01:19:13.510Z,6.08
2022-10-09T01:20:13.425Z,6.03
2022-10-09T01:21:13.346Z,5.92
2022-10-09T01:22:13.261Z,6.00
2022-10-09T01:23:13.177Z,5.96
2022-10-09T01:24:13.098Z,5.95
2022-10-09T01:25:13.013Z,6.03
2022-10-09T01:26:12.932Z,6.04
2022-10-09T01:27:12.851Z,6.03
2022-10-09T01:28:12.799Z,5.99
2022-10-09T01:29:12.708Z,6.08
2022-10-09T01:30:12.602Z,5.96
2022-10-09T01:31:12.564Z,5.96
2022-10-09T01:32:12.434Z,5.96
2022-10-09T01:33:12.358Z,5.95
2022-10-09T01:34:12.273Z,5.90
2022-10-09T01:35:12.189Z,5.95
2022-10-09T01:36:12.105Z,5.83
2022-10-09T01:37:12.021Z,5.74
2022-10-09T01:38:11.942Z,5.65
2022-10-09T01:39:11.860Z,5.72
2022-10-09T01:40:11.773Z,5.70
2022-10-09T01:41:11.694Z,5.68
2022-10-09T01:42:11.612Z,5.63
2022-10-09T01:43:11.529Z,5.67
2022-10-09T01:44:11.449Z,5.56
2022-10-09T01:45:11.366Z,5.65
2022-10-09T01:46:11.308Z,5.68
2022-10-09T01:47:11.201Z,5.72
2022-10-09T01:48:11.116Z,5.67
2022-10-09T01:49:11.034Z,5.72
2022-10-09T01:50:10.961Z,5.74
2022-10-09T01:51:10.867Z,5.80
2022-10-09T01:52:10.781Z,5.80
2022-10-09T01:53:10.704Z,5.83
2022-10-09T01:54:10.617Z,5.74
2022-10-09T01:55:10.538Z,5.62
2022-10-09T01:56:10.456Z,5.57
2022-10-09T01:57:10.374Z,5.56
2022-10-09T01:58:10.289Z,5.57
2022-10-09T01:59:14.838Z,5.63
2022-10-09T02:00:10.123Z,5.59
2022-10-09T02:01:10.088Z,5.60
2022-10-09T02:02:10.084Z,5.63
2022-10-09T02:03:09.877Z,5.62
2022-10-09T02:04:09.789Z,5.68
2022-10-09T02:05:09.709Z,5.68
2022-10-09T02:06:09.626Z,5.77
2022-10-09T02:07:09.546Z,5.77
2022-10-09T02:08:09.463Z,5.68
2022-10-09T02:09:09.378Z,5.63
2022-10-09T02:10:09.300Z,5.67
2022-10-09T02:11:09.214Z,5.60
2022-10-09T02:12:09.132Z,5.57
2022-10-09T02:13:09.053Z,5.59
2022-10-09T02:14:08.968Z,5.60
2022-10-09T02:15:08.882Z,5.50
2022-10-09T02:16:08.858Z,5.53
2022-10-09T02:17:08.720Z,5.53
2022-10-09T02:18:08.637Z,5.36
2022-10-09T02:19:08.551Z,5.29
2022-10-09T02:20:08.466Z,5.24
2022-10-09T02:21:08.390Z,5.21
2022-10-09T02:22:08.303Z,5.18
2022-10-09T02:23:08.224Z,5.21
2022-10-09T02:25:40.134Z,5.39
2022-10-09T02:26:40.035Z,5.36
2022-10-09T02:27:39.959Z,5.45
2022-10-09T02:28:45.131Z,5.38
2022-10-09T02:29:39.791Z,5.39
2022-10-09T02:30:39.704Z,5.44
2022-10-09T02:31:39.697Z,5.41
2022-10-09T02:32:39.542Z,5.42
2022-10-09T02:33:39.465Z,5.42
2022-10-09T02:34:39.382Z,5.32
2022-10-09T02:35:39.294Z,5.35
2022-10-09T02:36:39.256Z,5.21
2022-10-09T02:37:39.125Z,5.17
2022-10-09T02:38:39.040Z,5.17
2022-10-09T02:39:38.962Z,5.13
2022-10-09T02:40:38.878Z,5.18
2022-10-09T02:41:38.793Z,5.23
2022-10-09T02:42:38.713Z,5.17
2022-10-09T02:43:38.630Z,5.18
2022-10-09T02:44:38.542Z,5.21
2022-10-09T02:45:38.464Z,5.26
2022-10-09T02:46:38.555Z,5.31
2022-10-09T02:47:38.296Z,5.26
2022-10-09T02:48:38.210Z,5.39
2022-10-09T02:49:38.132Z,5.36
2022-10-09T02:50:38.045Z,5.31
2022-10-09T02:51:37.964Z,5.26
2022-10-09T02:52:37.884Z,5.34
2022-10-09T02:53:37.802Z,5.13
2022-10-09T02:54:37.713Z,5.18
2022-10-09T02:55:37.643Z,5.18
2022-10-09T02:56:39.162Z,5.24
2022-10-09T02:57:37.466Z,5.13
2022-10-09T02:58:37.382Z,5.02
2022-10-09T02:59:37.302Z,4.92
2022-10-09T03:00:37.222Z,4.87
2022-10-09T03:01:37.225Z,4.73
2022-10-09T03:02:37.148Z,4.72
2022-10-09T03:03:36.972Z,4.64
2022-10-09T03:04:36.903Z,4.74
2022-10-09T03:05:36.801Z,4.73
2022-10-09T03:06:36.718Z,4.85
2022-10-09T03:07:36.648Z,4.83
2022-10-09T03:08:36.554Z,4.87
2022-10-09T03:09:36.472Z,4.87
2022-10-09T03:10:36.389Z,5.02
2022-10-09T03:11:36.307Z,5.00
2022-10-09T03:12:36.220Z,4.91
2022-10-09T03:13:36.142Z,4.96
2022-10-09T03:14:36.057Z,4.87
2022-10-09T03:15:35.973Z,4.83
2022-10-09T03:16:35.932Z,4.80
2022-10-09T03:17:35.822Z,4.88
2022-10-09T03:18:35.723Z,4.95
2022-10-09T03:19:35.645Z,5.02
2022-10-09T03:20:35.556Z,5.03
2022-10-09T03:21:35.470Z,5.06
2022-10-09T03:22:35.391Z,5.11
2022-10-09T03:23:35.311Z,5.21
2022-10-09T03:24:35.223Z,5.20
2022-10-09T03:25:35.147Z,5.14
2022-10-09T03:26:35.057Z,5.17
2022-10-09T03:27:34.971Z,5.16
2022-10-09T03:28:34.918Z,5.20
2022-10-09T03:29:34.809Z,5.17
2022-10-09T03:30:34.724Z,5.16
2022-10-09T03:32:02.540Z,5.03
2022-10-09T03:32:34.559Z,5.03
2022-10-09T03:33:34.470Z,5.10
2022-10-09T03:34:34.392Z,5.03
2022-10-09T03:35:34.365Z,5.05
2022-10-09T03:36:34.225Z,5.05
2022-10-09T03:37:34.146Z,5.05
2022-10-09T03:38:34.062Z,5.08
2022-10-09T03:39:33.974Z,5.05
2022-10-09T03:40:33.892Z,5.06
2022-10-09T03:41:33.809Z,4.98
2022-10-09T03:42:33.730Z,5.00
2022-10-09T03:43:33.646Z,4.95
2022-10-09T03:44:33.600Z,4.98
2022-10-09T03:45:33.476Z,4.98
2022-10-09T03:46:33.492Z,5.02
2022-10-09T03:47:33.313Z,5.00
2022-10-09T03:48:33.229Z,5.03
2022-10-09T03:49:33.140Z,5.02
2022-10-09T03:50:33.059Z,4.98
2022-10-09T03:51:32.977Z,5.06
2022-10-09T03:52:32.898Z,4.96
2022-10-09T03:53:32.813Z,4.98
2022-10-09T03:54:32.726Z,5.05
2022-10-09T03:55:32.643Z,4.99
2022-10-09T03:56:32.581Z,5.08
2022-10-09T03:57:32.479Z,5.05
2022-10-09T03:58:32.404Z,5.08
2022-10-09T03:59:32.308Z,5.11
2022-10-09T04:00:32.279Z,5.18
2022-10-09T04:01:32.145Z,5.17
2022-10-09T04:02:32.138Z,5.18
2022-10-09T04:03:31.979Z,5.23
2022-10-09T04:04:31.893Z,5.10
2022-10-09T04:05:31.810Z,5.14
2022-10-09T04:06:31.731Z,5.10
2022-10-09T04:07:31.652Z,5.13
2022-10-09T04:08:31.562Z,5.08
2022-10-09T04:09:31.477Z,4.99
2022-10-09T04:10:31.397Z,5.00
2022-10-09T04:11:31.311Z,5.05
2022-10-09T04:12:31.233Z,5.10
2022-10-09T04:13:31.147Z,5.06
2022-10-09T04:14:31.062Z,5.10
2022-10-09T04:15:30.979Z,5.10
2022-10-09T04:16:31.027Z,5.11
2022-10-09T04:17:30.815Z,5.11
2022-10-09T04:18:30.731Z,5.17
2022-10-09T04:19:30.651Z,5.18
2022-10-09T04:20:30.565Z,5.16
2022-10-09T04:21:30.480Z,5.18
2022-10-09T04:22:30.404Z,5.29
2022-10-09T04:23:30.314Z,5.21
2022-10-09T04:24:30.230Z,5.24
2022-10-09T04:25:30.152Z,5.26
2022-10-09T04:26:30.068Z,5.29
2022-10-09T04:27:29.979Z,5.29
2022-10-09T04:28:29.973Z,5.35
2022-10-09T04:29:29.825Z,5.32
2022-10-09T04:30:29.731Z,5.18
2022-10-09T04:31:29.733Z,5.06
2022-10-09T04:32:29.565Z,5.06
2022-10-09T04:33:29.483Z,4.96
2022-10-09T04:34:29.398Z,4.98
2022-10-09T04:35:29.316Z,4.85
2022-10-09T04:36:29.234Z,4.85
2022-10-09T04:37:29.150Z,4.80
2022-10-09T04:38:29.120Z,4.79
2022-10-09T04:39:28.987Z,4.84
2022-10-09T04:40:28.906Z,4.84
2022-10-09T04:41:28.814Z,4.84
2022-10-09T04:42:28.734Z,4.87
2022-10-09T04:43:28.652Z,4.84
2022-10-09T04:44:28.565Z,4.87
2022-10-09T04:45:28.535Z,4.84
2022-10-09T04:46:28.403Z,4.80
2022-10-09T04:47:28.323Z,4.83
2022-10-09T04:48:28.233Z,4.84
2022-10-09T04:49:28.149Z,4.84
2022-10-09T04:50:28.070Z,4.93
2022-10-09T04:51:27.982Z,4.87
2022-10-09T04:52:27.904Z,4.96
2022-10-09T04:53:27.819Z,4.85
2022-10-09T04:54:27.739Z,4.92
2022-10-09T04:55:27.652Z,4.91
2022-10-09T04:56:27.573Z,4.93
2022-10-09T04:57:27.484Z,4.99
2022-10-09T04:58:27.406Z,5.00
2022-10-09T04:59:27.319Z,4.91
2022-10-09T05:00:27.237Z,4.93
2022-10-09T05:01:27.219Z,4.84
2022-10-09T05:02:27.158Z,4.99
2022-10-09T05:03:26.991Z,4.98
2022-10-09T05:04:26.903Z,4.96
2022-10-09T05:05:26.819Z,5.02
2022-10-09T05:06:26.742Z,5.06
2022-10-09T05:07:26.655Z,4.98
2022-10-09T05:08:26.567Z,5.08
2022-10-09T05:09:26.482Z,5.06
2022-10-09T05:10:26.406Z,5.06
2022-10-09T05:11:26.319Z,5.10
2022-10-09T05:12:26.236Z,5.03
2022-10-09T05:13:26.151Z,5.13
2022-10-09T05:14:26.070Z,5.11
2022-10-09T05:15:25.986Z,5.10
2022-10-09T05:16:25.945Z,5.13
2022-10-09T05:17:25.869Z,5.18
2022-10-09T05:18:25.737Z,5.11
2022-10-09T05:19:25.652Z,5.20
2022-10-09T05:20:25.569Z,5.18
2022-10-09T05:21:25.489Z,5.26
2022-10-09T05:22:25.422Z,5.26
2022-10-09T05:23:25.320Z,5.17
2022-10-09T05:24:25.239Z,5.20
2022-10-09T05:25:25.153Z,5.28
2022-10-09T05:26:25.073Z,5.28
2022-10-09T05:27:24.994Z,5.26
2022-10-09T05:28:24.943Z,5.34
2022-10-09T05:29:24.819Z,5.32
2022-10-09T05:30:24.742Z,5.29
2022-10-09T05:31:24.692Z,5.23
2022-10-09T05:32:24.573Z,5.35
2022-10-09T05:33:24.493Z,5.32
2022-10-09T05:34:24.411Z,5.32
2022-10-09T05:35:24.332Z,5.28
2022-10-09T05:36:24.236Z,5.42
2022-10-09T05:37:24.156Z,5.35
2022-10-09T05:38:24.078Z,5.32
2022-10-09T05:39:23.989Z,5.32
2022-10-09T05:40:28.979Z,5.16
2022-10-09T05:41:23.825Z,5.24
2022-10-09T05:42:23.744Z,5.21
2022-10-09T05:43:23.733Z,5.26
2022-10-09T05:44:23.578Z,5.17
2022-10-09T05:45:23.492Z,5.23
2022-10-09T05:46:23.412Z,5.20
2022-10-09T05:47:23.323Z,5.11
2022-10-09T05:48:23.241Z,5.14
2022-10-09T05:49:23.163Z,5.08
2022-10-09T05:50:23.072Z,5.05
2022-10-09T05:51:22.992Z,5.03
2022-10-09T05:52:22.907Z,5.02
2022-10-09T05:53:22.829Z,5.03
2022-10-09T05:54:22.742Z,5.02
2022-10-09T05:55:22.661Z,5.05
2022-10-09T05:56:22.578Z,5.03
2022-10-09T05:57:22.512Z,4.98
2022-10-09T05:58:22.413Z,4.99
2022-10-09T05:59:22.334Z,4.96
2022-10-09T06:00:22.243Z,5.02
2022-10-09T06:01:22.203Z,5.03
2022-10-09T06:02:22.117Z,5.06
2022-10-09T06:03:21.994Z,4.96
2022-10-09T06:04:21.910Z,4.84
2022-10-09T06:05:21.832Z,4.85
2022-10-09T06:06:21.750Z,4.87
2022-10-09T06:07:21.658Z,4.92
2022-10-09T06:08:21.576Z,4.87
2022-10-09T06:09:21.507Z,4.93
2022-10-09T06:10:21.413Z,4.88
2022-10-09T06:11:21.328Z,4.87
2022-10-09T06:12:21.243Z,4.99
2022-10-09T06:13:21.159Z,4.99
2022-10-09T06:14:21.076Z,4.96
2022-10-09T06:15:21.058Z,5.02
2022-10-09T06:16:20.938Z,5.06
2022-10-09T06:17:20.826Z,5.06
2022-10-09T06:18:20.759Z,5.21
2022-10-09T06:19:20.672Z,5.11
2022-10-09T06:20:20.587Z,5.11
2022-10-09T06:21:20.494Z,5.21
2022-10-09T06:22:20.412Z,5.23
2022-10-09T06:23:20.325Z,5.28
2022-10-09T06:24:23.268Z,5.24
2022-10-09T06:25:20.162Z,5.24
2022-10-09T06:26:20.078Z,5.24
2022-10-09T06:27:19.994Z,5.28
2022-10-09T06:28:19.960Z,5.28
2022-10-09T06:29:19.832Z,5.31
2022-10-09T06:30:19.749Z,5.32
2022-10-09T06:31:19.706Z,5.28
2022-10-09T06:32:19.578Z,5.34
2022-10-09T06:33:19.495Z,5.36
2022-10-09T06:34:19.410Z,5.41
2022-10-09T06:35:19.329Z,5.35
2022-10-09T06:36:19.245Z,5.45
2022-10-09T06:37:19.163Z,5.44
2022-10-09T06:38:19.153Z,5.36
2022-10-09T06:39:19.002Z,5.52
2022-10-09T06:40:18.913Z,5.47
2022-10-09T06:41:18.825Z,5.50
2022-10-09T06:42:18.745Z,5.60
2022-10-09T06:43:18.670Z,5.62
2022-10-09T06:44:18.586Z,5.63
2022-10-09T06:45:18.984Z,5.67
2022-10-09T06:46:18.445Z,5.54
2022-10-09T06:47:18.332Z,5.68
2022-10-09T06:48:18.249Z,5.71
2022-10-09T06:49:18.160Z,5.70
2022-10-09T06:50:18.082Z,5.80
2022-10-09T06:51:17.999Z,5.80
2022-10-09T06:52:17.914Z,5.88
2022-10-09T06:53:17.836Z,5.86
2022-10-09T06:54:17.751Z,5.83
2022-10-09T06:55:17.665Z,5.89
2022-10-09T06:56:17.587Z,5.96
2022-10-09T06:57:17.501Z,5.96
2022-10-09T06:58:17.420Z,6.08
2022-10-09T06:59:17.341Z,6.06
2022-10-09T07:00:17.250Z,6.11
2022-10-09T07:01:17.244Z,6.24
2022-10-09T07:02:17.122Z,6.27
2022-10-09T07:03:17.012Z,6.36
2022-10-09T07:04:16.923Z,6.37
2022-10-09T07:05:16.836Z,6.36
2022-10-09T07:06:16.754Z,6.44
2022-10-09T07:07:16.668Z,6.48
2022-10-09T07:08:16.588Z,6.42
2022-10-09T07:09:16.502Z,6.51
2022-10-09T07:10:16.425Z,6.52
2022-10-09T07:11:16.342Z,6.57
2022-10-09T07:12:16.257Z,6.59
2022-10-09T07:13:16.172Z,6.68
2022-10-09T07:14:16.186Z,6.72
2022-10-09T07:15:16.008Z,6.73
2022-10-09T07:16:16.018Z,6.72
2022-10-09T07:17:15.840Z,6.73
2022-10-09T07:18:15.771Z,6.70
2022-10-09T07:19:15.678Z,6.84
2022-10-09T07:20:15.597Z,6.81
2022-10-09T07:21:15.513Z,6.80
2022-10-09T07:22:15.431Z,6.93
2022-10-09T07:23:15.352Z,6.91
2022-10-09T07:24:15.268Z,6.96
2022-10-09T07:25:15.178Z,6.99
2022-10-09T07:26:15.098Z,7.09
2022-10-09T07:27:15.019Z,7.06
2022-10-09T07:28:14.956Z,7.16
2022-10-09T07:29:14.855Z,7.17
2022-10-09T07:30:14.769Z,7.26
2022-10-09T07:31:14.909Z,7.30
2022-10-09T07:32:14.607Z,7.42
2022-10-09T07:33:14.532Z,7.57
2022-10-09T07:34:14.437Z,7.67
2022-10-09T07:35:14.505Z,7.81
2022-10-09T07:36:14.283Z,7.97
2022-10-09T07:37:14.196Z,8.14
2022-10-09T07:38:14.107Z,8.21
2022-10-09T07:39:14.029Z,8.40
2022-10-09T07:40:13.941Z,8.42
2022-10-09T07:41:13.905Z,8.57
2022-10-09T07:42:13.790Z,8.69
2022-10-09T07:43:13.699Z,8.82
2022-10-09T07:44:13.648Z,9.00
2022-10-09T07:45:13.547Z,9.09
2022-10-09T07:46:13.533Z,9.19
2022-10-09T07:47:13.378Z,9.13
2022-10-09T07:48:13.308Z,9.40
2022-10-09T07:49:13.211Z,9.56
2022-10-09T07:50:13.128Z,9.70
2022-10-09T07:51:13.043Z,9.70
2022-10-09T07:52:12.960Z,9.82
2022-10-09T07:53:12.878Z,9.89
2022-10-09T07:54:12.797Z,10.01
2022-10-09T07:55:12.721Z,10.04
2022-10-09T07:56:12.633Z,10.21
2022-10-09T07:57:12.561Z,10.44
2022-10-09T07:58:12.470Z,10.51
2022-10-09T07:59:12.399Z,10.66
2022-10-09T08:00:12.306Z,10.84
2022-10-09T08:01:16.112Z,10.87
2022-10-09T08:02:12.189Z,11.02
2022-10-09T08:03:12.067Z,11.03
2022-10-09T08:04:11.997Z,11.18
2022-10-09T08:05:11.904Z,11.28
2022-10-09T08:06:11.820Z,11.57
2022-10-09T08:07:11.749Z,11.61
2022-10-09T08:08:11.661Z,11.84
2022-10-09T08:09:11.586Z,11.98
2022-10-09T08:10:11.500Z,12.08
2022-10-09T08:11:11.426Z,12.02
2022-10-09T08:12:11.343Z,12.19
2022-10-09T08:13:11.266Z,12.16
2022-10-09T08:14:14.145Z,12.15
2022-10-09T08:15:11.095Z,12.36
2022-10-09T08:16:11.088Z,12.44
2022-10-09T08:17:10.940Z,12.55
2022-10-09T08:18:10.854Z,12.60
2022-10-09T08:19:10.776Z,12.59
2022-10-09T08:20:10.691Z,12.69
2022-10-09T08:21:10.618Z,12.77
2022-10-09T08:22:10.533Z,12.86
2022-10-09T08:23:10.460Z,12.99
2022-10-09T08:24:10.371Z,13.06
2022-10-09T08:25:10.298Z,13.06
2022-10-09T08:26:10.222Z,13.09
2022-10-09T08:27:10.133Z,13.06
2022-10-09T08:28:10.101Z,13.11
2022-10-09T08:29:09.974Z,13.17
2022-10-09T08:30:09.897Z,13.24
2022-10-09T08:31:09.911Z,13.36
2022-10-09T08:32:09.738Z,13.33
2022-10-09T08:33:09.658Z,13.32
2022-10-09T08:34:09.582Z,13.37
2022-10-09T08:35:09.501Z,13.37
2022-10-09T08:36:09.420Z,13.38
2022-10-09T08:37:09.340Z,13.40
2022-10-09T08:38:21.288Z,13.53
2022-10-09T08:39:09.192Z,13.48
2022-10-09T08:40:09.104Z,13.50
2022-10-09T08:41:09.728Z,13.55
2022-10-09T08:42:08.945Z,13.73
2022-10-09T08:43:08.865Z,13.94
2022-10-09T08:44:08.786Z,14.03
2022-10-09T08:45:08.709Z,14.17
2022-10-09T08:46:08.679Z,14.31
2022-10-09T08:47:08.558Z,14.39
2022-10-09T08:48:08.468Z,14.47
2022-10-09T08:49:08.395Z,14.65
2022-10-09T08:50:08.314Z,14.80
2022-10-09T08:51:08.237Z,14.84
2022-10-09T08:52:08.154Z,14.93
2022-10-09T08:53:08.076Z,14.95
2022-10-09T08:54:07.995Z,15.08
2022-10-09T08:55:07.928Z,15.12
2022-10-09T08:56:07.841Z,15.23
2022-10-09T08:57:07.763Z,15.28
2022-10-09T08:58:07.687Z,15.30
2022-10-09T08:59:07.606Z,15.24
2022-10-09T09:00:07.529Z,15.26
2022-10-09T09:01:07.457Z,15.28
2022-10-09T09:02:07.434Z,15.35
2022-10-09T09:03:07.309Z,15.49
2022-10-09T09:04:07.210Z,15.57
2022-10-09T09:05:07.138Z,15.63
2022-10-09T09:06:07.059Z,15.83
2022-10-09T09:07:06.980Z,15.89
2022-10-09T09:08:06.898Z,16.03
2022-10-09T09:09:06.823Z,15.97
2022-10-09T09:10:06.749Z,15.94
2022-10-09T09:11:06.668Z,16.03
2022-10-09T09:12:06.586Z,16.18
2022-10-09T09:13:06.529Z,16.14
2022-10-09T09:14:06.432Z,16.27
2022-10-09T09:15:06.359Z,16.25
2022-10-09T09:16:06.287Z,16.26
2022-10-09T09:17:06.204Z,16.33
2022-10-09T09:18:06.124Z,16.35
2022-10-09T09:19:06.046Z,16.30
2022-10-09T09:20:05.968Z,16.20
2022-10-09T09:21:05.888Z,16.12
2022-10-09T09:22:05.826Z,16.15
2022-10-09T09:23:05.734Z,16.18
2022-10-09T09:24:05.659Z,16.26
2022-10-09T09:25:05.587Z,16.42
2022-10-09T09:26:05.504Z,16.41
2022-10-09T09:27:05.428Z,16.52
2022-10-09T09:28:10.074Z,16.75
2022-10-09T09:29:05.269Z,16.77
2022-10-09T09:30:05.199Z,17.02
2022-10-09T09:31:05.141Z,17.00
2022-10-09T09:32:05.034Z,17.03
2022-10-09T09:33:04.960Z,16.95
2022-10-09T09:34:04.885Z,16.89
2022-10-09T09:35:04.812Z,16.99
2022-10-09T09:36:04.725Z,17.02
2022-10-09T09:37:04.654Z,17.02
2022-10-09T09:38:04.578Z,17.11
2022-10-09T09:41:04.345Z,17.13
2022-10-09T09:42:04.272Z,17.11
2022-10-09T09:43:05.130Z,17.03
2022-10-09T09:44:04.116Z,17.11
2022-10-09T09:45:04.049Z,17.23
2022-10-09T09:46:03.974Z,17.14
2022-10-09T09:47:03.888Z,17.13
2022-10-09T09:48:03.817Z,17.18
2022-10-09T09:49:08.521Z,17.23
2022-10-09T09:50:03.651Z,17.13
2022-10-09T09:51:26.877Z,17.11
2022-10-09T09:52:03.493Z,16.99
2022-10-09T09:53:03.422Z,16.84
2022-10-09T09:54:03.348Z,16.85
2022-10-09T09:55:03.272Z,16.88
2022-10-09T09:56:03.191Z,16.84
2022-10-09T09:57:21.948Z,16.81
2022-10-09T09:58:03.043Z,16.67
2022-10-09T09:59:02.963Z,16.85
2022-10-09T10:00:02.884Z,16.98
2022-10-09T10:01:02.829Z,16.95
2022-10-09T10:02:02.771Z,16.93
2022-10-09T10:03:03.114Z,16.95
2022-10-09T10:04:02.577Z,17.11
2022-10-09T10:05:02.499Z,17.11
2022-10-09T10:06:02.422Z,17.26
2022-10-09T10:07:02.353Z,17.21
2022-10-09T10:08:02.270Z,17.43
2022-10-09T10:09:02.197Z,17.40
2022-10-09T10:10:02.118Z,17.32
2022-10-09T10:11:02.040Z,17.28
2022-10-09T10:12:01.964Z,17.28
2022-10-09T10:13:01.888Z,17.51
2022-10-09T10:14:01.812Z,17.55
2022-10-09T10:15:01.735Z,17.46
2022-10-09T10:16:01.705Z,17.64
2022-10-09T10:17:01.589Z,17.54
2022-10-09T10:18:01.508Z,17.66
2022-10-09T10:19:01.430Z,17.71
2022-10-09T10:20:01.355Z,17.77
2022-10-09T10:21:01.282Z,17.82
2022-10-09T10:22:01.203Z,17.92
2022-10-09T10:23:01.129Z,17.85
2022-10-09T10:25:00.976Z,17.76
2022-10-09T10:26:00.897Z,17.53
2022-10-09T10:27:00.821Z,17.40
2022-10-09T10:28:00.743Z,17.47
2022-10-09T10:29:00.669Z,17.53
2022-10-09T10:30:00.590Z,17.28
2022-10-09T10:31:00.577Z,17.20
2022-10-09T10:32:00.439Z,16.90
2022-10-09T10:33:00.368Z,16.90
2022-10-09T10:34:00.285Z,16.88
2022-10-09T10:35:00.214Z,16.92
2022-10-09T10:36:00.137Z,16.95
2022-10-09T10:37:02.618Z,17.00
2022-10-09T10:37:59.978Z,16.95
2022-10-09T10:38:59.914Z,16.93
2022-10-09T10:39:59.877Z,17.05
2022-10-09T10:40:59.752Z,17.13
2022-10-09T10:41:59.679Z,17.21
2022-10-09T10:42:59.598Z,17.23
2022-10-09T10:43:59.519Z,17.26
2022-10-09T10:44:59.448Z,17.20
2022-10-09T10:45:59.370Z,17.23
2022-10-09T10:46:59.411Z,17.35
2022-10-09T10:47:59.213Z,17.36
2022-10-09T10:48:59.145Z,17.33
2022-10-09T10:49:59.067Z,17.28
2022-10-09T10:50:58.991Z,17.18
2022-10-09T10:51:58.910Z,17.28
2022-10-09T10:52:58.840Z,17.30
2022-10-09T10:53:58.758Z,17.43
2022-10-09T10:54:58.686Z,17.57
2022-10-09T10:56:04.127Z,17.54
2022-10-09T10:56:58.539Z,17.70
2022-10-09T10:57:58.452Z,17.71
2022-10-09T10:58:58.379Z,17.57
2022-10-09T10:59:58.305Z,17.29
2022-10-09T11:00:58.293Z,17.28
2022-10-09T11:01:58.145Z,17.46
2022-10-09T11:02:58.146Z,17.51
2022-10-09T11:03:57.995Z,17.71
2022-10-09T11:04:57.921Z,17.64
2022-10-09T11:05:57.842Z,17.77
2022-10-09T11:06:57.773Z,17.95
2022-10-09T11:08:00.026Z,17.91
2022-10-09T11:08:57.617Z,17.87
2022-10-09T11:09:57.536Z,17.89
2022-10-09T11:10:57.462Z,18.00
2022-10-09T11:11:57.390Z,18.07
2022-10-09T11:12:57.311Z,18.02
2022-10-09T11:13:57.232Z,18.19
2022-10-09T11:14:57.159Z,18.11
2022-10-09T11:15:57.125Z,18.16
2022-10-09T11:16:57.013Z,18.21
2022-10-09T11:17:56.937Z,18.16
2022-10-09T11:18:56.866Z,18.10
2022-10-09T11:19:56.775Z,17.98
2022-10-09T11:20:56.701Z,17.91
2022-10-09T11:21:56.626Z,17.94
2022-10-09T11:22:56.548Z,17.92
2022-10-09T11:23:56.471Z,17.91
2022-10-09T11:24:56.399Z,17.92
2022-10-09T11:25:56.323Z,17.98
2022-10-09T11:27:00.881Z,17.88
2022-10-09T11:27:56.176Z,17.94
2022-10-09T11:28:56.094Z,17.92
2022-10-09T11:29:56.021Z,17.88
2022-10-09T11:30:55.949Z,17.73
2022-10-09T11:31:55.955Z,17.85
2022-10-09T11:32:55.792Z,17.77
2022-10-09T11:33:55.713Z,17.76
2022-10-09T11:34:55.642Z,17.77
2022-10-09T11:35:55.569Z,17.81
2022-10-09T11:36:55.489Z,17.91
2022-10-09T11:37:55.410Z,17.94
2022-10-09T11:38:55.343Z,18.09
2022-10-09T11:39:55.269Z,18.06
2022-10-09T11:40:55.187Z,18.10
2022-10-09T11:41:55.112Z,18.11
2022-10-09T11:42:55.032Z,17.98
2022-10-09T11:43:54.955Z,18.02
2022-10-09T11:44:54.883Z,17.94
2022-10-09T11:45:54.876Z,18.07
2022-10-09T11:46:54.733Z,18.14
2022-10-09T11:47:54.659Z,18.09
2022-10-09T11:48:54.574Z,18.13
2022-10-09T11:49:54.501Z,18.06
2022-10-09T11:50:54.437Z,18.16
2022-10-09T11:51:54.355Z,18.14
2022-10-09T11:52:54.272Z,18.14
2022-10-09T11:53:54.200Z,18.24
2022-10-09T11:54:54.124Z,18.16
2022-10-09T11:55:54.050Z,18.19
2022-10-09T11:56:53.969Z,18.18
2022-10-09T11:57:53.898Z,18.16
2022-10-09T11:58:53.822Z,18.06
2022-10-09T11:59:53.744Z,18.29
2022-10-09T12:00:53.737Z,18.18
2022-10-09T12:01:53.640Z,18.13
2022-10-09T12:02:53.516Z,18.03
2022-10-09T12:03:56.489Z,18.09
2022-10-09T12:04:55.360Z,18.00
2022-10-09T12:05:53.296Z,17.91
2022-10-09T12:06:53.220Z,18.02
2022-10-09T12:07:53.142Z,18.06
2022-10-09T12:08:53.064Z,18.10
2022-10-09T12:09:52.989Z,18.07
2022-10-09T12:10:52.917Z,18.03
2022-10-09T12:11:52.841Z,18.03
2022-10-09T12:12:52.759Z,18.13
2022-10-09T12:13:52.685Z,18.09
2022-10-09T12:14:52.610Z,18.16
2022-10-09T12:15:52.536Z,18.21
2022-10-09T12:16:52.546Z,18.31
2022-10-09T12:17:52.389Z,18.50
2022-10-09T12:18:52.310Z,18.42
2022-10-09T12:19:52.236Z,18.40
2022-10-09T12:20:52.154Z,18.40
2022-10-09T12:21:52.088Z,18.40
2022-10-09T12:23:13.860Z,18.39
2022-10-09T12:23:51.930Z,18.46
2022-10-09T12:24:51.853Z,18.42
2022-10-09T12:25:51.778Z,18.42
2022-10-09T12:26:51.707Z,18.42
2022-10-09T12:27:51.632Z,18.42
2022-10-09T12:28:51.631Z,18.40
2022-10-09T12:29:51.484Z,18.43
2022-10-09T12:30:51.464Z,18.42
2022-10-09T12:31:51.325Z,18.57
2022-10-09T12:32:51.952Z,18.57
2022-10-09T12:33:51.176Z,18.61
2022-10-09T12:34:51.103Z,18.58
2022-10-09T12:35:51.022Z,18.46
2022-10-09T12:36:50.949Z,18.40
2022-10-09T12:37:50.878Z,18.49
2022-10-09T12:38:50.805Z,18.40
2022-10-09T12:39:50.723Z,18.58
2022-10-09T12:40:50.646Z,18.57
2022-10-09T12:41:50.579Z,18.43
2022-10-09T12:42:50.691Z,18.40
2022-10-09T12:43:50.425Z,18.34
2022-10-09T12:44:50.346Z,18.34
2022-10-09T12:45:50.326Z,18.16
2022-10-09T12:46:50.201Z,18.09
2022-10-09T12:47:50.118Z,17.98
2022-10-09T12:48:50.043Z,17.77
2022-10-09T12:49:49.972Z,17.74
2022-10-09T12:50:49.895Z,17.73
2022-10-09T12:51:52.471Z,17.81
2022-10-09T12:52:50.020Z,17.88
2022-10-09T12:53:49.666Z,17.88
2022-10-09T12:54:49.587Z,17.71
2022-10-09T12:55:49.516Z,17.71
2022-10-09T12:56:49.444Z,17.71
2022-10-09T12:57:49.365Z,17.50
2022-10-09T12:58:49.287Z,17.53
2022-10-09T12:59:49.222Z,17.57
2022-10-09T13:00:49.137Z,17.66
2022-10-09T13:01:49.243Z,17.73
2022-10-09T13:02:49.337Z,17.69
2022-10-09T13:03:48.906Z,17.66
2022-10-09T13:04:48.833Z,17.60
2022-10-09T13:05:48.757Z,17.64
2022-10-09T13:06:48.681Z,17.57
2022-10-09T13:07:48.624Z,17.57
2022-10-09T13:08:48.531Z,17.69
2022-10-09T13:09:48.452Z,17.54
2022-10-09T13:10:48.384Z,17.51